sensor_id;sensor_type;location;lat;lon;timestamp;P1;durP1;ratioP1;P2;durP2;ratioP2
78614;SDS011;67937;52.488;20.952;2024-03-02T00:00:42;33.30;;;17.80;;
78614;SDS011;67937;52.488;20.952;2024-03-02T00:03:31;27.50;;;14.50;;
78614;SDS011;67937;52.488;20.952;2024-03-02T00:05:59;36.40;;;17.10;;
78614;SDS011;67937;52.488;20.952;2024-03-02T00:08:27;36.00;;;17.70;;
78614;SDS011;67937;52.488;20.952;2024-03-02T00:10:58;31.30;;;16.00;;
78614;SDS011;67937;52.488;20.952;2024-03-02T00:13:27;32.90;;;16.90;;
78614;SDS011;67937;52.488;20.952;2024-03-02T00:15:57;33.20;;;15.80;;
78614;SDS011;67937;52.488;20.952;2024-03-02T00:18:26;31.90;;;16.70;;
78614;SDS011;67937;52.488;20.952;2024-03-02T00:20:58;31.40;;;16.60;;
78614;SDS011;67937;52.488;20.952;2024-03-02T00:23:30;33.30;;;17.40;;
78614;SDS011;67937;52.488;20.952;2024-03-02T00:25:58;36.20;;;16.10;;
78614;SDS011;67937;52.488;20.952;2024-03-02T00:28:29;31.30;;;16.60;;
78614;SDS011;67937;52.488;20.952;2024-03-02T00:31:04;32.00;;;16.70;;
78614;SDS011;67937;52.488;20.952;2024-03-02T00:33:34;32.70;;;16.30;;
78614;SDS011;67937;52.488;20.952;2024-03-02T00:36:04;28.80;;;15.20;;
78614;SDS011;67937;52.488;20.952;2024-03-02T00:38:33;33.40;;;17.00;;
78614;SDS011;67937;52.488;20.952;2024-03-02T00:41:05;31.10;;;15.90;;
78614;SDS011;67937;52.488;20.952;2024-03-02T00:43:45;31.90;;;16.30;;
78614;SDS011;67937;52.488;20.952;2024-03-02T00:46:34;35.60;;;17.40;;
78614;SDS011;67937;52.488;20.952;2024-03-02T00:49:04;31.80;;;17.90;;
78614;SDS011;67937;52.488;20.952;2024-03-02T00:54:19;28.60;;;16.20;;
78614;SDS011;67937;52.488;20.952;2024-03-02T00:56:55;37.30;;;18.90;;
78614;SDS011;67937;52.488;20.952;2024-03-02T00:59:26;32.30;;;15.90;;
78614;SDS011;67937;52.488;20.952;2024-03-02T01:01:54;29.80;;;15.60;;
78614;SDS011;67937;52.488;20.952;2024-03-02T01:04:22;35.20;;;17.30;;
78614;SDS011;67937;52.488;20.952;2024-03-02T01:06:51;33.40;;;16.80;;
78614;SDS011;67937;52.488;20.952;2024-03-02T01:09:19;33.90;;;17.40;;
78614;SDS011;67937;52.488;20.952;2024-03-02T01:11:47;35.80;;;17.50;;
78614;SDS011;67937;52.488;20.952;2024-03-02T01:14:16;36.70;;;17.80;;
78614;SDS011;67937;52.488;20.952;2024-03-02T01:16:44;33.10;;;17.50;;
78614;SDS011;67937;52.488;20.952;2024-03-02T01:19:12;39.20;;;17.00;;
78614;SDS011;67937;52.488;20.952;2024-03-02T01:21:41;36.10;;;18.50;;
78614;SDS011;67937;52.488;20.952;2024-03-02T01:24:09;30.20;;;15.60;;
78614;SDS011;67937;52.488;20.952;2024-03-02T01:26:37;31.40;;;17.20;;
78614;SDS011;67937;52.488;20.952;2024-03-02T01:29:06;33.10;;;16.80;;
78614;SDS011;67937;52.488;20.952;2024-03-02T01:31:34;35.70;;;18.50;;
78614;SDS011;67937;52.488;20.952;2024-03-02T01:34:02;32.20;;;16.60;;
78614;SDS011;67937;52.488;20.952;2024-03-02T01:36:31;31.20;;;15.50;;
78614;SDS011;67937;52.488;20.952;2024-03-02T01:38:59;28.90;;;15.60;;
78614;SDS011;67937;52.488;20.952;2024-03-02T01:41:27;35.30;;;15.80;;
78614;SDS011;67937;52.488;20.952;2024-03-02T01:43:56;29.80;;;15.90;;
78614;SDS011;67937;52.488;20.952;2024-03-02T01:46:24;30.80;;;16.40;;
78614;SDS011;67937;52.488;20.952;2024-03-02T01:48:53;30.80;;;16.30;;
78614;SDS011;67937;52.488;20.952;2024-03-02T01:51:21;30.50;;;15.60;;
78614;SDS011;67937;52.488;20.952;2024-03-02T01:53:49;30.00;;;14.90;;
78614;SDS011;67937;52.488;20.952;2024-03-02T01:56:17;33.30;;;15.60;;
78614;SDS011;67937;52.488;20.952;2024-03-02T01:58:46;29.80;;;15.10;;
78614;SDS011;67937;52.488;20.952;2024-03-02T02:01:14;27.90;;;13.70;;
78614;SDS011;67937;52.488;20.952;2024-03-02T02:03:43;24.70;;;13.60;;
78614;SDS011;67937;52.488;20.952;2024-03-02T02:06:12;26.90;;;15.00;;
78614;SDS011;67937;52.488;20.952;2024-03-02T02:08:40;26.60;;;13.90;;
78614;SDS011;67937;52.488;20.952;2024-03-02T02:11:08;28.30;;;16.00;;
78614;SDS011;67937;52.488;20.952;2024-03-02T02:13:37;25.00;;;14.10;;
78614;SDS011;67937;52.488;20.952;2024-03-02T02:16:05;27.30;;;14.80;;
78614;SDS011;67937;52.488;20.952;2024-03-02T02:18:34;30.40;;;13.50;;
78614;SDS011;67937;52.488;20.952;2024-03-02T02:21:03;26.70;;;15.70;;
78614;SDS011;67937;52.488;20.952;2024-03-02T02:23:31;30.70;;;16.00;;
78614;SDS011;67937;52.488;20.952;2024-03-02T02:25:59;28.00;;;14.60;;
78614;SDS011;67937;52.488;20.952;2024-03-02T02:28:29;25.00;;;13.40;;
78614;SDS011;67937;52.488;20.952;2024-03-02T02:30:58;27.50;;;14.60;;
78614;SDS011;67937;52.488;20.952;2024-03-02T02:33:26;29.40;;;13.50;;
78614;SDS011;67937;52.488;20.952;2024-03-02T02:35:54;22.90;;;12.70;;
78614;SDS011;67937;52.488;20.952;2024-03-02T02:38:23;25.20;;;13.90;;
78614;SDS011;67937;52.488;20.952;2024-03-02T02:40:51;27.20;;;12.90;;
78614;SDS011;67937;52.488;20.952;2024-03-02T02:43:19;24.60;;;13.20;;
78614;SDS011;67937;52.488;20.952;2024-03-02T02:45:47;24.10;;;14.00;;
78614;SDS011;67937;52.488;20.952;2024-03-02T02:48:15;23.60;;;13.20;;
78614;SDS011;67937;52.488;20.952;2024-03-02T02:50:43;22.60;;;12.00;;
78614;SDS011;67937;52.488;20.952;2024-03-02T02:53:12;28.00;;;14.60;;
78614;SDS011;67937;52.488;20.952;2024-03-02T02:55:40;25.50;;;14.20;;
78614;SDS011;67937;52.488;20.952;2024-03-02T02:58:09;22.80;;;12.20;;
78614;SDS011;67937;52.488;20.952;2024-03-02T03:00:38;24.80;;;13.10;;
78614;SDS011;67937;52.488;20.952;2024-03-02T03:03:06;25.30;;;13.40;;
78614;SDS011;67937;52.488;20.952;2024-03-02T03:05:34;26.50;;;13.10;;
78614;SDS011;67937;52.488;20.952;2024-03-02T03:08:02;22.80;;;12.70;;
78614;SDS011;67937;52.488;20.952;2024-03-02T03:10:31;28.90;;;14.20;;
78614;SDS011;67937;52.488;20.952;2024-03-02T03:12:59;27.40;;;13.20;;
78614;SDS011;67937;52.488;20.952;2024-03-02T03:15:27;25.20;;;13.50;;
78614;SDS011;67937;52.488;20.952;2024-03-02T03:17:56;22.80;;;13.00;;
78614;SDS011;67937;52.488;20.952;2024-03-02T03:20:24;26.10;;;13.90;;
78614;SDS011;67937;52.488;20.952;2024-03-02T03:22:52;23.60;;;13.60;;
78614;SDS011;67937;52.488;20.952;2024-03-02T03:25:20;24.90;;;14.20;;
78614;SDS011;67937;52.488;20.952;2024-03-02T03:27:48;24.30;;;13.50;;
78614;SDS011;67937;52.488;20.952;2024-03-02T03:30:18;26.80;;;14.10;;
78614;SDS011;67937;52.488;20.952;2024-03-02T03:32:46;25.20;;;13.20;;
78614;SDS011;67937;52.488;20.952;2024-03-02T03:35:15;26.10;;;12.60;;
78614;SDS011;67937;52.488;20.952;2024-03-02T03:37:45;28.90;;;14.30;;
78614;SDS011;67937;52.488;20.952;2024-03-02T03:40:13;25.20;;;13.40;;
78614;SDS011;67937;52.488;20.952;2024-03-02T03:42:41;24.30;;;12.50;;
78614;SDS011;67937;52.488;20.952;2024-03-02T03:45:11;26.30;;;13.70;;
78614;SDS011;67937;52.488;20.952;2024-03-02T03:47:39;27.40;;;15.50;;
78614;SDS011;67937;52.488;20.952;2024-03-02T03:50:07;25.00;;;13.30;;
78614;SDS011;67937;52.488;20.952;2024-03-02T03:52:36;27.80;;;14.00;;
78614;SDS011;67937;52.488;20.952;2024-03-02T03:55:04;26.50;;;13.90;;
78614;SDS011;67937;52.488;20.952;2024-03-02T03:57:33;28.20;;;14.20;;
78614;SDS011;67937;52.488;20.952;2024-03-02T04:00:01;24.20;;;13.10;;
78614;SDS011;67937;52.488;20.952;2024-03-02T04:02:30;27.40;;;14.20;;
78614;SDS011;67937;52.488;20.952;2024-03-02T04:04:59;26.60;;;13.70;;
78614;SDS011;67937;52.488;20.952;2024-03-02T04:07:27;26.10;;;14.50;;
78614;SDS011;67937;52.488;20.952;2024-03-02T04:09:55;24.80;;;13.40;;
78614;SDS011;67937;52.488;20.952;2024-03-02T04:12:24;23.90;;;13.60;;
78614;SDS011;67937;52.488;20.952;2024-03-02T04:14:52;30.20;;;14.20;;
78614;SDS011;67937;52.488;20.952;2024-03-02T04:17:20;31.40;;;15.20;;
78614;SDS011;67937;52.488;20.952;2024-03-02T04:19:49;24.90;;;14.50;;
78614;SDS011;67937;52.488;20.952;2024-03-02T04:22:17;26.50;;;13.30;;
78614;SDS011;67937;52.488;20.952;2024-03-02T04:24:45;28.90;;;14.80;;
78614;SDS011;67937;52.488;20.952;2024-03-02T04:27:13;25.70;;;13.90;;
78614;SDS011;67937;52.488;20.952;2024-03-02T04:29:42;23.60;;;12.70;;
78614;SDS011;67937;52.488;20.952;2024-03-02T04:32:10;25.20;;;13.20;;
78614;SDS011;67937;52.488;20.952;2024-03-02T04:34:38;28.00;;;14.40;;
78614;SDS011;67937;52.488;20.952;2024-03-02T04:37:06;26.60;;;13.60;;
78614;SDS011;67937;52.488;20.952;2024-03-02T04:39:35;23.50;;;13.40;;
78614;SDS011;67937;52.488;20.952;2024-03-02T04:42:03;24.00;;;13.30;;
78614;SDS011;67937;52.488;20.952;2024-03-02T04:44:32;27.80;;;14.60;;
78614;SDS011;67937;52.488;20.952;2024-03-02T04:47:00;27.00;;;13.80;;
78614;SDS011;67937;52.488;20.952;2024-03-02T04:49:28;28.30;;;14.00;;
78614;SDS011;67937;52.488;20.952;2024-03-02T04:51:57;24.60;;;13.70;;
78614;SDS011;67937;52.488;20.952;2024-03-02T04:54:25;25.50;;;14.20;;
78614;SDS011;67937;52.488;20.952;2024-03-02T04:56:53;31.20;;;15.40;;
78614;SDS011;67937;52.488;20.952;2024-03-02T04:59:21;25.50;;;14.00;;
78614;SDS011;67937;52.488;20.952;2024-03-02T05:01:49;25.30;;;14.20;;
78614;SDS011;67937;52.488;20.952;2024-03-02T05:04:18;25.40;;;14.20;;
78614;SDS011;67937;52.488;20.952;2024-03-02T05:06:46;29.10;;;13.80;;
78614;SDS011;67937;52.488;20.952;2024-03-02T05:09:19;30.10;;;15.40;;
78614;SDS011;67937;52.488;20.952;2024-03-02T05:11:47;28.00;;;14.10;;
78614;SDS011;67937;52.488;20.952;2024-03-02T05:14:38;27.70;;;14.80;;
78614;SDS011;67937;52.488;20.952;2024-03-02T05:17:06;27.40;;;13.90;;
78614;SDS011;67937;52.488;20.952;2024-03-02T05:19:34;25.70;;;13.40;;
78614;SDS011;67937;52.488;20.952;2024-03-02T05:22:02;24.60;;;14.10;;
78614;SDS011;67937;52.488;20.952;2024-03-02T05:24:32;28.80;;;13.90;;
78614;SDS011;67937;52.488;20.952;2024-03-02T05:27:00;29.60;;;15.40;;
78614;SDS011;67937;52.488;20.952;2024-03-02T05:29:28;30.20;;;13.90;;
78614;SDS011;67937;52.488;20.952;2024-03-02T05:31:57;29.40;;;13.90;;
78614;SDS011;67937;52.488;20.952;2024-03-02T05:34:25;24.20;;;12.60;;
78614;SDS011;67937;52.488;20.952;2024-03-02T05:36:53;26.30;;;14.20;;
78614;SDS011;67937;52.488;20.952;2024-03-02T05:39:22;33.70;;;15.80;;
78614;SDS011;67937;52.488;20.952;2024-03-02T05:41:51;29.70;;;14.00;;
78614;SDS011;67937;52.488;20.952;2024-03-02T05:44:19;30.50;;;14.20;;
78614;SDS011;67937;52.488;20.952;2024-03-02T05:46:47;28.50;;;13.60;;
78614;SDS011;67937;52.488;20.952;2024-03-02T05:49:15;26.90;;;13.80;;
78614;SDS011;67937;52.488;20.952;2024-03-02T05:51:44;28.70;;;13.80;;
78614;SDS011;67937;52.488;20.952;2024-03-02T05:54:12;27.50;;;14.80;;
78614;SDS011;67937;52.488;20.952;2024-03-02T05:56:40;25.70;;;12.90;;
78614;SDS011;67937;52.488;20.952;2024-03-02T05:59:08;24.40;;;12.70;;
78614;SDS011;67937;52.488;20.952;2024-03-02T06:01:40;25.50;;;13.60;;
78614;SDS011;67937;52.488;20.952;2024-03-02T06:04:13;28.90;;;13.90;;
78614;SDS011;67937;52.488;20.952;2024-03-02T06:06:41;23.40;;;12.50;;
78614;SDS011;67937;52.488;20.952;2024-03-02T06:09:10;23.10;;;12.90;;
78614;SDS011;67937;52.488;20.952;2024-03-02T06:11:40;24.80;;;12.50;;
78614;SDS011;67937;52.488;20.952;2024-03-02T06:14:08;30.50;;;13.80;;
78614;SDS011;67937;52.488;20.952;2024-03-02T06:16:37;23.40;;;12.40;;
78614;SDS011;67937;52.488;20.952;2024-03-02T06:19:05;24.70;;;12.80;;
78614;SDS011;67937;52.488;20.952;2024-03-02T06:21:33;22.90;;;11.60;;
78614;SDS011;67937;52.488;20.952;2024-03-02T06:24:01;24.70;;;11.80;;
78614;SDS011;67937;52.488;20.952;2024-03-02T06:26:30;25.10;;;12.20;;
78614;SDS011;67937;52.488;20.952;2024-03-02T06:28:58;28.20;;;12.50;;
78614;SDS011;67937;52.488;20.952;2024-03-02T06:31:26;23.70;;;12.70;;
78614;SDS011;67937;52.488;20.952;2024-03-02T06:33:54;25.40;;;12.60;;
78614;SDS011;67937;52.488;20.952;2024-03-02T06:36:23;23.10;;;11.50;;
78614;SDS011;67937;52.488;20.952;2024-03-02T06:38:51;27.70;;;13.50;;
78614;SDS011;67937;52.488;20.952;2024-03-02T06:41:19;21.70;;;11.30;;
78614;SDS011;67937;52.488;20.952;2024-03-02T06:43:47;22.00;;;11.70;;
78614;SDS011;67937;52.488;20.952;2024-03-02T06:46:15;22.20;;;11.90;;
78614;SDS011;67937;52.488;20.952;2024-03-02T06:48:43;26.80;;;13.40;;
78614;SDS011;67937;52.488;20.952;2024-03-02T06:51:11;23.30;;;11.20;;
78614;SDS011;67937;52.488;20.952;2024-03-02T06:53:40;22.80;;;11.70;;
78614;SDS011;67937;52.488;20.952;2024-03-02T06:56:08;25.00;;;12.30;;
78614;SDS011;67937;52.488;20.952;2024-03-02T06:58:36;24.60;;;11.80;;
78614;SDS011;67937;52.488;20.952;2024-03-02T07:01:04;24.80;;;12.10;;
78614;SDS011;67937;52.488;20.952;2024-03-02T07:03:32;27.20;;;12.00;;
78614;SDS011;67937;52.488;20.952;2024-03-02T07:06:01;27.40;;;13.00;;
78614;SDS011;67937;52.488;20.952;2024-03-02T07:08:29;22.30;;;11.50;;
78614;SDS011;67937;52.488;20.952;2024-03-02T07:10:57;23.30;;;10.80;;
78614;SDS011;67937;52.488;20.952;2024-03-02T07:13:26;24.70;;;11.80;;
78614;SDS011;67937;52.488;20.952;2024-03-02T07:15:54;25.40;;;12.10;;
78614;SDS011;67937;52.488;20.952;2024-03-02T07:18:49;24.80;;;12.00;;
78614;SDS011;67937;52.488;20.952;2024-03-02T07:21:18;26.50;;;12.30;;
78614;SDS011;67937;52.488;20.952;2024-03-02T07:23:48;16.70;;;10.40;;
78614;SDS011;67937;52.488;20.952;2024-03-02T07:26:17;24.70;;;12.00;;
78614;SDS011;67937;52.488;20.952;2024-03-02T07:28:46;23.50;;;12.00;;
78614;SDS011;67937;52.488;20.952;2024-03-02T07:31:15;25.10;;;11.60;;
78614;SDS011;67937;52.488;20.952;2024-03-02T07:33:44;24.80;;;12.20;;
78614;SDS011;67937;52.488;20.952;2024-03-02T07:36:13;24.70;;;12.50;;
78614;SDS011;67937;52.488;20.952;2024-03-02T07:38:42;25.00;;;12.00;;
78614;SDS011;67937;52.488;20.952;2024-03-02T07:41:11;27.10;;;13.50;;
78614;SDS011;67937;52.488;20.952;2024-03-02T07:43:40;25.40;;;12.50;;
78614;SDS011;67937;52.488;20.952;2024-03-02T07:46:08;23.30;;;12.60;;
78614;SDS011;67937;52.488;20.952;2024-03-02T07:48:36;23.40;;;11.60;;
78614;SDS011;67937;52.488;20.952;2024-03-02T07:51:05;24.60;;;11.40;;
78614;SDS011;67937;52.488;20.952;2024-03-02T07:53:33;25.90;;;12.20;;
78614;SDS011;67937;52.488;20.952;2024-03-02T07:56:03;26.60;;;12.10;;
78614;SDS011;67937;52.488;20.952;2024-03-02T07:58:32;25.50;;;11.70;;
78614;SDS011;67937;52.488;20.952;2024-03-02T08:01:01;23.90;;;13.10;;
78614;SDS011;67937;52.488;20.952;2024-03-02T08:03:30;23.30;;;12.30;;
78614;SDS011;67937;52.488;20.952;2024-03-02T08:06:00;25.20;;;12.10;;
78614;SDS011;67937;52.488;20.952;2024-03-02T08:08:29;23.10;;;12.20;;
78614;SDS011;67937;52.488;20.952;2024-03-02T08:10:57;24.90;;;11.20;;
78614;SDS011;67937;52.488;20.952;2024-03-02T08:13:25;28.20;;;12.50;;
78614;SDS011;67937;52.488;20.952;2024-03-02T08:15:54;22.60;;;11.20;;
78614;SDS011;67937;52.488;20.952;2024-03-02T08:18:22;26.10;;;13.20;;
78614;SDS011;67937;52.488;20.952;2024-03-02T08:20:51;20.30;;;11.30;;
78614;SDS011;67937;52.488;20.952;2024-03-02T08:23:20;17.90;;;9.40;;
78614;SDS011;67937;52.488;20.952;2024-03-02T08:25:49;24.20;;;12.70;;
78614;SDS011;67937;52.488;20.952;2024-03-02T08:28:17;21.20;;;11.50;;
78614;SDS011;67937;52.488;20.952;2024-03-02T08:30:46;24.00;;;12.50;;
78614;SDS011;67937;52.488;20.952;2024-03-02T08:33:14;24.90;;;12.60;;
78614;SDS011;67937;52.488;20.952;2024-03-02T08:35:43;28.20;;;12.80;;
78614;SDS011;67937;52.488;20.952;2024-03-02T08:38:12;24.60;;;11.30;;
78614;SDS011;67937;52.488;20.952;2024-03-02T08:40:40;22.90;;;11.30;;
78614;SDS011;67937;52.488;20.952;2024-03-02T08:43:09;30.70;;;13.50;;
78614;SDS011;67937;52.488;20.952;2024-03-02T08:45:37;24.40;;;12.20;;
78614;SDS011;67937;52.488;20.952;2024-03-02T08:48:07;26.20;;;14.00;;
78614;SDS011;67937;52.488;20.952;2024-03-02T08:50:36;24.90;;;13.60;;
78614;SDS011;67937;52.488;20.952;2024-03-02T08:53:05;20.30;;;11.40;;
78614;SDS011;67937;52.488;20.952;2024-03-02T08:55:33;25.60;;;12.50;;
78614;SDS011;67937;52.488;20.952;2024-03-02T08:58:01;25.20;;;11.80;;
78614;SDS011;67937;52.488;20.952;2024-03-02T09:00:30;23.90;;;12.20;;
78614;SDS011;67937;52.488;20.952;2024-03-02T09:02:58;24.10;;;12.60;;
78614;SDS011;67937;52.488;20.952;2024-03-02T09:05:27;26.50;;;12.50;;
78614;SDS011;67937;52.488;20.952;2024-03-02T09:07:55;26.90;;;12.60;;
78614;SDS011;67937;52.488;20.952;2024-03-02T09:10:23;28.70;;;12.70;;
78614;SDS011;67937;52.488;20.952;2024-03-02T09:12:52;26.40;;;14.40;;
78614;SDS011;67937;52.488;20.952;2024-03-02T09:15:20;24.90;;;12.40;;
78614;SDS011;67937;52.488;20.952;2024-03-02T09:17:49;24.60;;;13.10;;
78614;SDS011;67937;52.488;20.952;2024-03-02T09:20:18;25.70;;;13.40;;
78614;SDS011;67937;52.488;20.952;2024-03-02T09:22:46;23.40;;;11.80;;
78614;SDS011;67937;52.488;20.952;2024-03-02T09:25:15;22.90;;;12.00;;
78614;SDS011;67937;52.488;20.952;2024-03-02T09:27:43;24.70;;;12.50;;
78614;SDS011;67937;52.488;20.952;2024-03-02T09:30:12;24.60;;;11.80;;
78614;SDS011;67937;52.488;20.952;2024-03-02T09:32:41;26.10;;;13.70;;
78614;SDS011;67937;52.488;20.952;2024-03-02T09:35:10;24.30;;;11.60;;
78614;SDS011;67937;52.488;20.952;2024-03-02T09:37:39;25.10;;;13.00;;
78614;SDS011;67937;52.488;20.952;2024-03-02T09:40:07;21.50;;;12.20;;
78614;SDS011;67937;52.488;20.952;2024-03-02T09:42:36;25.10;;;11.60;;
78614;SDS011;67937;52.488;20.952;2024-03-02T09:45:06;24.90;;;11.90;;
78614;SDS011;67937;52.488;20.952;2024-03-02T09:47:35;27.30;;;12.50;;
78614;SDS011;67937;52.488;20.952;2024-03-02T09:50:03;26.80;;;11.80;;
78614;SDS011;67937;52.488;20.952;2024-03-02T09:52:32;21.20;;;12.50;;
78614;SDS011;67937;52.488;20.952;2024-03-02T09:55:01;22.10;;;12.10;;
78614;SDS011;67937;52.488;20.952;2024-03-02T09:57:32;24.10;;;12.60;;
78614;SDS011;67937;52.488;20.952;2024-03-02T10:00:00;17.80;;;8.70;;
78614;SDS011;67937;52.488;20.952;2024-03-02T10:02:29;25.10;;;12.10;;
78614;SDS011;67937;52.488;20.952;2024-03-02T10:04:57;26.20;;;12.70;;
78614;SDS011;67937;52.488;20.952;2024-03-02T10:07:26;23.20;;;11.60;;
78614;SDS011;67937;52.488;20.952;2024-03-02T10:09:54;25.20;;;13.50;;
78614;SDS011;67937;52.488;20.952;2024-03-02T10:12:22;26.60;;;13.20;;
78614;SDS011;67937;52.488;20.952;2024-03-02T10:14:51;22.50;;;11.00;;
78614;SDS011;67937;52.488;20.952;2024-03-02T10:17:34;28.50;;;13.60;;
78614;SDS011;67937;52.488;20.952;2024-03-02T10:20:23;26.70;;;12.50;;
78614;SDS011;67937;52.488;20.952;2024-03-02T10:22:52;22.70;;;11.40;;
78614;SDS011;67937;52.488;20.952;2024-03-02T10:25:32;27.60;;;13.30;;
78614;SDS011;67937;52.488;20.952;2024-03-02T10:28:01;25.70;;;12.40;;
78614;SDS011;67937;52.488;20.952;2024-03-02T10:30:32;23.80;;;12.10;;
78614;SDS011;67937;52.488;20.952;2024-03-02T10:33:05;24.20;;;11.70;;
78614;SDS011;67937;52.488;20.952;2024-03-02T10:35:34;21.60;;;12.30;;
78614;SDS011;67937;52.488;20.952;2024-03-02T10:38:04;28.70;;;14.50;;
78614;SDS011;67937;52.488;20.952;2024-03-02T10:40:33;21.50;;;11.40;;
78614;SDS011;67937;52.488;20.952;2024-03-02T10:43:02;23.80;;;13.20;;
78614;SDS011;67937;52.488;20.952;2024-03-02T10:45:32;27.60;;;12.60;;
78614;SDS011;67937;52.488;20.952;2024-03-02T10:48:01;21.80;;;12.50;;
78614;SDS011;67937;52.488;20.952;2024-03-02T10:50:31;24.70;;;13.30;;
78614;SDS011;67937;52.488;20.952;2024-03-02T10:53:00;25.10;;;13.10;;
78614;SDS011;67937;52.488;20.952;2024-03-02T10:55:28;25.10;;;12.70;;
78614;SDS011;67937;52.488;20.952;2024-03-02T10:57:57;24.80;;;13.50;;
78614;SDS011;67937;52.488;20.952;2024-03-02T11:00:30;25.60;;;12.70;;
78614;SDS011;67937;52.488;20.952;2024-03-02T11:03:04;25.90;;;13.00;;
78614;SDS011;67937;52.488;20.952;2024-03-02T11:05:39;23.60;;;14.30;;
78614;SDS011;67937;52.488;20.952;2024-03-02T11:08:16;23.30;;;12.30;;
78614;SDS011;67937;52.488;20.952;2024-03-02T11:10:51;33.20;;;14.70;;
78614;SDS011;67937;52.488;20.952;2024-03-02T11:13:22;23.90;;;13.00;;
78614;SDS011;67937;52.488;20.952;2024-03-02T11:16:21;28.40;;;14.80;;
78614;SDS011;67937;52.488;20.952;2024-03-02T11:19:06;24.50;;;12.80;;
78614;SDS011;67937;52.488;20.952;2024-03-02T11:21:40;25.70;;;12.40;;
78614;SDS011;67937;52.488;20.952;2024-03-02T11:26:53;21.10;;;12.90;;
78614;SDS011;67937;52.488;20.952;2024-03-02T11:32:05;23.40;;;12.30;;
78614;SDS011;67937;52.488;20.952;2024-03-02T11:34:47;22.50;;;13.00;;
78614;SDS011;67937;52.488;20.952;2024-03-02T11:37:20;23.30;;;11.30;;
78614;SDS011;67937;52.488;20.952;2024-03-02T11:39:49;24.90;;;13.30;;
78614;SDS011;67937;52.488;20.952;2024-03-02T11:42:20;21.00;;;11.90;;
78614;SDS011;67937;52.488;20.952;2024-03-02T11:44:51;25.10;;;14.10;;
78614;SDS011;67937;52.488;20.952;2024-03-02T11:47:20;29.00;;;15.30;;
78614;SDS011;67937;52.488;20.952;2024-03-02T11:49:49;25.30;;;13.80;;
78614;SDS011;67937;52.488;20.952;2024-03-02T11:52:19;27.70;;;14.70;;
78614;SDS011;67937;52.488;20.952;2024-03-02T11:54:48;30.90;;;15.30;;
78614;SDS011;67937;52.488;20.952;2024-03-02T11:57:19;27.10;;;14.80;;
78614;SDS011;67937;52.488;20.952;2024-03-02T11:59:50;30.00;;;15.00;;
78614;SDS011;67937;52.488;20.952;2024-03-02T12:02:20;27.70;;;14.50;;
78614;SDS011;67937;52.488;20.952;2024-03-02T12:04:49;23.60;;;13.30;;
78614;SDS011;67937;52.488;20.952;2024-03-02T12:07:21;28.20;;;15.40;;
78614;SDS011;67937;52.488;20.952;2024-03-02T12:10:00;31.40;;;15.60;;
78614;SDS011;67937;52.488;20.952;2024-03-02T12:12:29;28.10;;;16.20;;
78614;SDS011;67937;52.488;20.952;2024-03-02T12:14:58;28.30;;;16.10;;
78614;SDS011;67937;52.488;20.952;2024-03-02T12:17:27;27.80;;;15.30;;
78614;SDS011;67937;52.488;20.952;2024-03-02T12:19:55;31.00;;;17.70;;
78614;SDS011;67937;52.488;20.952;2024-03-02T12:22:24;33.30;;;15.80;;
78614;SDS011;67937;52.488;20.952;2024-03-02T12:24:52;28.60;;;18.10;;
78614;SDS011;67937;52.488;20.952;2024-03-02T12:27:20;35.50;;;17.80;;
78614;SDS011;67937;52.488;20.952;2024-03-02T12:29:49;36.20;;;18.50;;
78614;SDS011;67937;52.488;20.952;2024-03-02T12:32:18;31.70;;;17.50;;
78614;SDS011;67937;52.488;20.952;2024-03-02T12:34:46;35.20;;;19.20;;
78614;SDS011;67937;52.488;20.952;2024-03-02T12:37:15;33.20;;;19.30;;
78614;SDS011;67937;52.488;20.952;2024-03-02T12:39:45;33.90;;;19.20;;
78614;SDS011;67937;52.488;20.952;2024-03-02T12:42:14;33.20;;;17.90;;
78614;SDS011;67937;52.488;20.952;2024-03-02T12:44:42;31.00;;;15.70;;
78614;SDS011;67937;52.488;20.952;2024-03-02T12:47:11;34.80;;;19.60;;
78614;SDS011;67937;52.488;20.952;2024-03-02T12:49:40;33.40;;;19.40;;
78614;SDS011;67937;52.488;20.952;2024-03-02T12:52:11;36.00;;;18.80;;
78614;SDS011;67937;52.488;20.952;2024-03-02T12:54:41;34.10;;;17.90;;
78614;SDS011;67937;52.488;20.952;2024-03-02T12:57:09;31.60;;;18.00;;
78614;SDS011;67937;52.488;20.952;2024-03-02T12:59:38;38.00;;;19.30;;
78614;SDS011;67937;52.488;20.952;2024-03-02T13:02:19;35.20;;;18.80;;
78614;SDS011;67937;52.488;20.952;2024-03-02T13:04:54;34.20;;;18.30;;
78614;SDS011;67937;52.488;20.952;2024-03-02T13:07:24;32.60;;;18.60;;
78614;SDS011;67937;52.488;20.952;2024-03-02T13:09:53;34.20;;;19.30;;
78614;SDS011;67937;52.488;20.952;2024-03-02T13:12:23;32.00;;;18.10;;
78614;SDS011;67937;52.488;20.952;2024-03-02T13:14:53;33.20;;;17.90;;
78614;SDS011;67937;52.488;20.952;2024-03-02T13:17:21;31.60;;;18.40;;
78614;SDS011;67937;52.488;20.952;2024-03-02T13:19:51;33.40;;;17.40;;
78614;SDS011;67937;52.488;20.952;2024-03-02T13:22:20;27.70;;;16.70;;
78614;SDS011;67937;52.488;20.952;2024-03-02T13:24:50;25.10;;;16.30;;
78614;SDS011;67937;52.488;20.952;2024-03-02T13:27:20;27.30;;;16.60;;
78614;SDS011;67937;52.488;20.952;2024-03-02T13:29:48;27.10;;;16.20;;
78614;SDS011;67937;52.488;20.952;2024-03-02T13:32:17;28.60;;;15.90;;
78614;SDS011;67937;52.488;20.952;2024-03-02T13:34:50;28.30;;;15.80;;
78614;SDS011;67937;52.488;20.952;2024-03-02T13:37:19;23.90;;;14.10;;
78614;SDS011;67937;52.488;20.952;2024-03-02T13:39:48;30.60;;;17.20;;
78614;SDS011;67937;52.488;20.952;2024-03-02T13:42:16;26.70;;;15.90;;
78614;SDS011;67937;52.488;20.952;2024-03-02T13:44:45;28.60;;;17.50;;
78614;SDS011;67937;52.488;20.952;2024-03-02T13:47:16;27.90;;;15.70;;
78614;SDS011;67937;52.488;20.952;2024-03-02T13:49:45;28.20;;;15.90;;
78614;SDS011;67937;52.488;20.952;2024-03-02T13:52:15;30.50;;;14.90;;
78614;SDS011;67937;52.488;20.952;2024-03-02T13:54:44;26.60;;;15.00;;
78614;SDS011;67937;52.488;20.952;2024-03-02T13:57:14;30.70;;;16.90;;
78614;SDS011;67937;52.488;20.952;2024-03-02T13:59:46;29.10;;;16.70;;
78614;SDS011;67937;52.488;20.952;2024-03-02T14:02:15;25.50;;;15.20;;
78614;SDS011;67937;52.488;20.952;2024-03-02T14:04:43;28.60;;;15.10;;
78614;SDS011;67937;52.488;20.952;2024-03-02T14:07:12;27.30;;;15.70;;
78614;SDS011;67937;52.488;20.952;2024-03-02T14:09:40;30.60;;;16.80;;
78614;SDS011;67937;52.488;20.952;2024-03-02T14:12:08;30.80;;;15.20;;
78614;SDS011;67937;52.488;20.952;2024-03-02T14:14:37;29.10;;;15.20;;
78614;SDS011;67937;52.488;20.952;2024-03-02T14:17:06;28.40;;;16.10;;
78614;SDS011;67937;52.488;20.952;2024-03-02T14:19:38;28.10;;;15.70;;
78614;SDS011;67937;52.488;20.952;2024-03-02T14:22:07;30.20;;;15.20;;
78614;SDS011;67937;52.488;20.952;2024-03-02T14:24:35;27.80;;;15.40;;
78614;SDS011;67937;52.488;20.952;2024-03-02T14:27:03;33.00;;;17.80;;
78614;SDS011;67937;52.488;20.952;2024-03-02T14:29:32;26.80;;;16.00;;